createdAt,value
2022-12-22T00:04:40.925Z,97533.53
2022-12-22T00:10:02.463Z,97529.75
2022-12-22T00:15:24.254Z,97520.22
2022-12-22T00:20:45.039Z,97513.81
2022-12-22T00:26:07.843Z,97499.66
2022-12-22T00:31:28.544Z,97485.41
2022-12-22T00:36:49.009Z,97488.47
2022-12-22T00:42:10.827Z,97483.53
2022-12-22T00:47:33.096Z,97476.25
2022-12-22T00:52:54.894Z,97477.94
2022-12-22T00:58:17.208Z,97472.19
2022-12-22T01:41:18.921Z,97418.78
2022-12-22T01:46:41.553Z,97417.13
2022-12-22T01:52:03.707Z,97416.44
2022-12-22T01:57:24.562Z,97411.41
2022-12-22T02:02:46.430Z,97400.22
2022-12-22T02:08:19.591Z,97399.97
2022-12-22T02:13:48.458Z,97393.84
2022-12-22T02:19:15.731Z,97380.00
2022-12-22T02:24:50.658Z,97377.50
2022-12-22T02:30:15.670Z,97346.19
2022-12-22T02:35:35.981Z,97346.31
2022-12-22T02:41:08.082Z,97329.41
2022-12-22T02:46:38.418Z,97314.28
2022-12-22T02:52:07.049Z,97307.81
2022-12-22T02:57:27.753Z,97293.84
2022-12-22T03:02:49.815Z,97285.88
2022-12-22T03:08:10.120Z,97279.75
2022-12-22T03:13:30.432Z,97270.22
2022-12-22T03:18:51.998Z,97274.13
2022-12-22T03:24:12.291Z,97263.78
2022-12-22T03:29:15.214Z,97258.16
2022-12-22T03:34:19.425Z,97245.56
2022-12-22T03:39:22.304Z,97237.59
2022-12-22T03:44:42.462Z,97225.09
2022-12-22T03:49:46.612Z,97220.47
2022-12-22T03:54:49.307Z,97214.72
2022-12-22T03:59:52.144Z,97202.91
2022-12-22T04:04:56.193Z,97194.78
2022-12-22T04:10:16.815Z,97196.59
2022-12-22T04:15:19.560Z,97181.88
2022-12-22T04:20:26.748Z,97183.72
2022-12-22T04:25:29.684Z,97180.19
2022-12-22T04:30:32.584Z,97180.88
2022-12-22T04:35:36.760Z,97178.09
2022-12-22T04:40:39.475Z,97168.81
2022-12-22T04:45:42.251Z,97164.63
2022-12-22T04:50:46.383Z,97163.31
2022-12-22T04:55:50.395Z,97157.00
2022-12-22T05:00:53.487Z,97139.06
2022-12-22T05:05:57.760Z,97133.91
2022-12-22T05:11:00.560Z,97143.09
2022-12-22T05:16:08.305Z,97135.13
2022-12-22T05:21:13.807Z,97123.84
2022-12-22T05:26:17.832Z,97129.34
2022-12-22T05:31:24.172Z,97113.25
2022-12-22T05:36:28.388Z,97104.81
2022-12-22T05:41:31.282Z,97107.63
2022-12-22T05:46:34.080Z,97092.50
2022-12-22T05:51:38.252Z,97078.19
2022-12-22T05:56:41.067Z,97096.50
2022-12-22T06:01:43.923Z,97084.03
2022-12-22T06:06:48.186Z,97075.91
2022-12-22T06:11:50.907Z,97082.88
2022-12-22T06:16:53.688Z,97069.47
2022-12-22T06:21:58.099Z,97078.47
2022-12-22T06:27:01.207Z,97090.81
2022-12-22T06:32:04.365Z,97077.84
2022-12-22T06:37:08.644Z,97063.41
2022-12-22T06:42:29.512Z,97059.44
2022-12-22T06:47:32.386Z,97067.81
2022-12-22T06:52:36.544Z,97064.66
2022-12-22T06:57:39.318Z,97077.81
2022-12-22T07:02:42.177Z,97084.13
2022-12-22T07:07:47.137Z,97088.94
2022-12-22T07:12:52.565Z,97078.63
2022-12-22T07:17:56.125Z,97085.75
2022-12-22T07:23:01.277Z,97088.91
2022-12-22T07:28:04.722Z,97090.91
2022-12-22T07:33:08.175Z,97091.03
2022-12-22T07:38:17.135Z,97095.38
2022-12-22T07:43:20.185Z,97110.34
2022-12-22T07:48:40.544Z,97108.19
2022-12-22T07:53:44.680Z,97110.50
2022-12-22T07:58:49.887Z,97112.66
2022-12-22T08:03:56.957Z,97116.44
2022-12-22T08:09:01.213Z,97122.09
2022-12-22T08:14:04.079Z,97124.09
2022-12-22T08:19:07.830Z,97157.34
2022-12-22T08:24:12.253Z,97155.81
2022-12-22T08:29:20.855Z,97146.09
2022-12-22T08:34:24.339Z,97163.69
2022-12-22T08:39:33.705Z,97169.47
2022-12-22T08:44:39.156Z,97172.00
2022-12-22T08:49:42.187Z,97163.66
2022-12-22T08:54:47.652Z,97169.13
2022-12-22T08:59:52.209Z,97182.28
2022-12-22T09:04:58.152Z,97187.09
2022-12-22T09:10:03.261Z,97209.44
2022-12-22T09:15:07.255Z,97222.28
2022-12-22T09:20:11.231Z,97239.09
2022-12-22T09:25:18.357Z,97252.41
2022-12-22T09:30:21.410Z,97253.41
2022-12-22T09:35:24.395Z,97266.84
2022-12-22T09:40:28.714Z,97279.47
2022-12-22T09:45:36.705Z,97284.72
2022-12-22T09:50:41.176Z,97291.53
2022-12-22T09:55:48.282Z,97309.34
2022-12-22T10:00:55.242Z,97333.75
2022-12-22T10:06:02.485Z,97346.59
2022-12-22T10:11:09.333Z,97353.28
2022-12-22T10:16:19.788Z,97365.91
2022-12-22T10:21:24.275Z,97370.75
2022-12-22T10:26:35.329Z,97366.19
2022-12-22T10:31:58.366Z,97372.81
2022-12-22T10:37:05.096Z,97380.56
2022-12-22T10:42:14.600Z,97389.69
2022-12-22T10:47:21.055Z,97397.34
2022-12-22T10:52:30.444Z,97401.00
2022-12-22T10:57:35.349Z,97406.66
2022-12-22T11:02:40.342Z,97419.81
2022-12-22T11:07:46.934Z,97427.38
2022-12-22T11:13:11.208Z,97440.50
2022-12-22T11:18:27.317Z,97439.28
2022-12-22T11:23:37.786Z,97455.41
2022-12-22T11:28:53.152Z,97469.50
2022-12-22T11:34:15.887Z,97472.09
2022-12-22T11:39:37.836Z,97475.69
2022-12-22T11:44:53.699Z,97489.81
2022-12-22T11:50:59.039Z,97478.03
2022-12-22T11:55:38.467Z,97500.16
2022-12-22T12:06:27.802Z,97501.63
2022-12-22T12:11:37.403Z,97521.47
2022-12-22T12:16:47.197Z,97525.75
2022-12-22T12:21:52.975Z,97522.03
2022-12-22T12:27:04.207Z,97538.84
2022-12-22T12:32:15.544Z,97543.59
2022-12-22T12:37:26.569Z,97552.97
2022-12-22T12:42:34.140Z,97556.13
2022-12-22T12:47:38.076Z,97571.41
2022-12-22T12:53:08.628Z,97573.34
2022-12-22T12:58:13.772Z,97571.63
2022-12-22T13:09:49.122Z,97589.72
2022-12-22T13:14:59.398Z,97593.06
2022-12-22T13:20:03.856Z,97593.34
2022-12-22T13:25:07.880Z,97603.19
2022-12-22T13:30:15.327Z,97604.69
2022-12-22T13:35:32.160Z,97601.72
2022-12-22T13:40:42.438Z,97605.56
2022-12-22T13:45:49.104Z,97603.31
2022-12-22T13:50:55.426Z,97603.50
2022-12-22T13:55:59.486Z,97602.13
2022-12-22T14:01:05.332Z,97605.81
2022-12-22T14:06:23.493Z,97615.78
2022-12-22T14:11:26.297Z,97620.84
2022-12-22T14:16:29.324Z,97626.72
2022-12-22T14:22:06.081Z,97622.59
2022-12-22T14:27:19.244Z,97619.56
2022-12-22T14:32:47.888Z,97635.97
2022-12-22T14:38:08.534Z,97644.41
2022-12-22T14:43:25.806Z,97642.16
2022-12-22T14:48:32.880Z,97643.03
2022-12-22T14:53:44.840Z,97653.97
2022-12-22T14:58:50.477Z,97659.41
2022-12-22T15:04:04.185Z,97655.94
2022-12-22T15:10:12.647Z,97657.91
2022-12-22T15:14:52.158Z,97641.38
2022-12-22T15:19:58.926Z,97644.63
2022-12-22T15:25:03.500Z,97639.59
2022-12-22T15:30:07.510Z,97641.56
2022-12-22T15:35:19.855Z,97645.22
2022-12-22T15:40:25.602Z,97657.09
2022-12-22T15:45:30.849Z,97656.56
2022-12-22T15:50:39.209Z,97642.19
2022-12-22T15:55:45.612Z,97643.44
2022-12-22T16:00:49.238Z,97653.66
2022-12-22T16:05:52.814Z,97644.28
2022-12-22T16:10:57.082Z,97642.38
2022-12-22T16:16:00.518Z,97633.81
2022-12-22T16:21:08.006Z,97632.44
2022-12-22T16:26:17.444Z,97628.09
2022-12-22T16:31:23.441Z,97635.56
2022-12-22T16:36:26.363Z,97618.63
2022-12-22T16:41:30.545Z,97615.56
2022-12-22T16:46:37.688Z,97609.97
2022-12-22T16:51:48.108Z,97609.97
2022-12-22T16:56:52.488Z,97613.59
2022-12-22T17:01:57.762Z,97606.72
2022-12-22T17:07:03.160Z,97601.84
2022-12-22T17:12:07.836Z,97593.03
2022-12-22T17:17:15.883Z,97589.56
2022-12-22T17:22:24.475Z,97588.00
2022-12-22T17:27:31.140Z,97584.25
2022-12-22T17:32:34.062Z,97574.03
2022-12-22T17:37:36.846Z,97573.88
2022-12-22T17:42:41.418Z,97555.28
2022-12-22T17:47:44.474Z,97547.47
2022-12-22T17:52:48.332Z,97536.97
2022-12-22T17:57:53.176Z,97529.00
2022-12-22T18:02:56.730Z,97533.59
2022-12-22T18:08:01.444Z,97534.31
2022-12-22T18:13:12.565Z,97526.34
2022-12-22T18:18:17.263Z,97516.00
2022-12-22T18:23:26.574Z,97505.38
2022-12-22T18:28:30.616Z,97497.09
2022-12-22T18:33:34.460Z,97488.16
2022-12-22T18:38:37.412Z,97484.53
2022-12-22T18:43:41.891Z,97479.06
2022-12-22T18:48:44.904Z,97463.94
2022-12-22T18:53:48.397Z,97469.00
2022-12-22T18:58:52.529Z,97466.19
2022-12-22T19:03:56.947Z,97455.44
2022-12-22T19:08:59.682Z,97448.44
2022-12-22T19:14:03.809Z,97450.13
2022-12-22T19:19:06.684Z,97448.44
2022-12-22T19:24:09.570Z,97448.56
2022-12-22T19:29:15.472Z,97441.59
2022-12-22T19:34:21.402Z,97428.16
2022-12-22T19:39:24.196Z,97408.16
2022-12-22T19:44:30.602Z,97406.22
2022-12-22T19:49:34.278Z,97406.22
2022-12-22T19:54:38.655Z,97391.78
2022-12-22T19:59:45.365Z,97399.63
2022-12-22T20:04:48.531Z,97392.47
2022-12-22T20:09:51.777Z,97386.34
2022-12-22T20:14:56.020Z,97384.50
2022-12-22T20:19:58.797Z,97376.25
2022-12-22T20:25:01.667Z,97374.44
2022-12-22T20:30:06.534Z,97371.50
2022-12-22T20:35:09.445Z,97364.03
2022-12-22T20:40:23.795Z,97370.22
2022-12-22T20:45:31.873Z,97358.59
2022-12-22T20:50:35.669Z,97362.91
2022-12-22T20:55:38.503Z,97364.75
2022-12-22T21:00:43.327Z,97361.94
2022-12-22T21:05:47.671Z,97363.78
2022-12-22T21:10:53.032Z,97356.50
2022-12-22T21:15:57.214Z,97347.53
2022-12-22T21:20:59.995Z,97342.22
2022-12-22T21:26:03.001Z,97344.72
2022-12-22T21:31:07.425Z,97346.38
2022-12-22T21:36:18.412Z,97335.75
2022-12-22T21:41:41.641Z,97337.88
2022-12-22T21:46:47.862Z,97334.53
2022-12-22T21:51:52.524Z,97324.72
2022-12-22T21:56:55.897Z,97315.94
2022-12-22T22:02:00.388Z,97315.94
2022-12-22T22:07:03.365Z,97310.63
2022-12-22T22:12:28.238Z,97302.66
2022-12-22T22:17:32.763Z,97288.69
2022-12-22T22:22:35.605Z,97284.31
2022-12-22T22:27:41.795Z,97289.63
2022-12-22T22:32:50.384Z,97287.81
2022-12-22T22:37:53.274Z,97288.69
2022-12-22T22:42:56.847Z,97293.13
2022-12-22T22:48:04.933Z,97293.13
2022-12-22T22:53:10.506Z,97297.59
2022-12-22T22:58:13.248Z,97294.94
2022-12-22T23:03:17.639Z,97293.28
2022-12-22T23:08:20.528Z,97292.28
2022-12-22T23:13:23.514Z,97286.03
2022-12-22T23:18:28.516Z,97285.16
2022-12-22T23:23:33.067Z,97281.66
2022-12-22T23:28:35.888Z,97277.63
2022-12-22T23:33:40.125Z,97282.44
2022-12-22T23:38:42.938Z,97274.59
2022-12-22T23:43:45.777Z,97261.31
2022-12-22T23:48:53.236Z,97261.47
2022-12-22T23:53:57.139Z,97264.25
2022-12-22T23:59:00.165Z,97257.44
